createdAt,value
2016-10-08T00:04:02.772Z,97.65
2016-10-08T00:08:59.682Z,98.03
2016-10-08T00:13:56.480Z,97.65
2016-10-08T00:18:52.831Z,97.94
2016-10-08T00:23:52.064Z,96.51
2016-10-08T00:28:47.796Z,96.94
2016-10-08T00:33:45.199Z,96.46
2016-10-08T00:38:41.466Z,95.89
2016-10-08T00:43:37.871Z,95.41
2016-10-08T00:48:37.403Z,95.98
2016-10-08T00:53:33.348Z,95.12
2016-10-08T00:58:29.806Z,95.12
2016-10-08T01:03:26.125Z,96.08
2016-10-08T01:08:23.133Z,95.60
2016-10-08T01:13:19.674Z,96.17
2016-10-08T01:18:16.391Z,95.70
2016-10-08T01:23:13.863Z,96.08
2016-10-08T01:28:10.157Z,95.79
2016-10-08T01:33:06.407Z,96.12
2016-10-08T01:38:08.603Z,95.70
2016-10-08T01:43:03.755Z,95.84
2016-10-08T01:48:00.053Z,96.51
2016-10-08T01:52:56.550Z,95.94
2016-10-08T01:57:52.939Z,96.31
2016-10-08T02:02:49.637Z,96.12
2016-10-08T02:07:46.155Z,96.98
2016-10-08T02:12:42.679Z,96.41
2016-10-08T02:17:39.982Z,96.22
2016-10-08T02:22:36.637Z,97.36
2016-10-08T02:27:32.792Z,97.79
2016-10-08T02:32:29.383Z,97.88
2016-10-08T02:37:25.928Z,98.65
2016-10-08T02:42:22.388Z,99.50
2016-10-08T02:47:18.796Z,99.50
2016-10-08T02:52:14.884Z,99.69
2016-10-08T02:57:11.332Z,99.98
2016-10-08T03:02:08.134Z,99.99
2016-10-08T03:07:04.501Z,99.99
2016-10-08T03:12:01.071Z,99.99
2016-10-08T03:16:57.470Z,99.99
2016-10-08T03:21:53.959Z,99.99
2016-10-08T03:26:50.813Z,99.99
2016-10-08T03:31:46.995Z,99.99
2016-10-08T03:36:43.635Z,99.99
2016-10-08T03:41:40.180Z,99.99
2016-10-08T03:46:36.646Z,99.99
2016-10-08T03:51:33.024Z,99.99
2016-10-08T03:56:29.688Z,99.99
2016-10-08T04:01:26.020Z,99.99
2016-10-08T04:06:22.435Z,99.99
2016-10-08T04:11:18.806Z,99.99
2016-10-08T04:16:16.599Z,99.99
2016-10-08T04:21:12.666Z,99.99
2016-10-08T04:26:09.865Z,99.99
2016-10-08T04:31:06.156Z,99.99
2016-10-08T04:36:02.669Z,99.99
2016-10-08T04:40:59.007Z,99.99
2016-10-08T04:45:55.459Z,99.99
2016-10-08T04:50:51.908Z,99.99
2016-10-08T04:55:47.809Z,99.99
2016-10-08T05:00:44.348Z,99.99
2016-10-08T05:05:40.757Z,99.99
2016-10-08T05:10:37.137Z,99.99
2016-10-08T05:15:33.677Z,99.99
2016-10-08T05:20:30.394Z,99.99
2016-10-08T05:25:26.398Z,99.99
2016-10-08T05:30:22.853Z,99.99
2016-10-08T05:35:19.090Z,99.99
2016-10-08T05:40:15.991Z,99.99
2016-10-08T05:45:12.414Z,99.99
2016-10-08T05:50:08.894Z,99.99
2016-10-08T05:55:07.360Z,99.99
2016-10-08T06:00:03.416Z,99.99
2016-10-08T06:04:59.827Z,99.99
2016-10-08T06:09:56.234Z,99.99
2016-10-08T06:14:52.608Z,99.99
2016-10-08T06:19:49.438Z,99.99
2016-10-08T06:24:45.937Z,99.99
2016-10-08T06:29:42.719Z,99.99
2016-10-08T06:34:39.349Z,99.99
2016-10-08T06:39:35.797Z,99.99
2016-10-08T06:44:32.150Z,99.99
2016-10-08T06:49:28.418Z,99.99
2016-10-08T06:54:26.142Z,99.99
2016-10-08T06:59:22.735Z,99.99
2016-10-08T07:04:19.059Z,99.99
2016-10-08T07:09:16.133Z,99.99
2016-10-08T07:14:12.386Z,99.99
2016-10-08T07:19:08.872Z,99.99
2016-10-08T07:24:05.800Z,99.74
2016-10-08T07:29:02.442Z,99.16
2016-10-08T07:33:59.211Z,97.83
2016-10-08T07:38:58.153Z,97.64
2016-10-08T07:43:53.719Z,96.50
2016-10-08T07:48:50.483Z,95.84
2016-10-08T07:53:48.484Z,95.41
2016-10-08T07:58:44.774Z,95.22
2016-10-08T08:03:41.352Z,93.70
2016-10-08T08:08:38.449Z,92.56
2016-10-08T08:13:36.150Z,92.32
2016-10-08T08:18:35.026Z,92.03
2016-10-08T08:23:31.598Z,90.70
2016-10-08T08:28:29.337Z,89.65
2016-10-08T08:33:25.658Z,88.93
2016-10-08T08:38:22.296Z,88.93
2016-10-08T08:43:18.348Z,85.89
2016-10-08T08:48:16.024Z,87.41
2016-10-08T08:53:12.615Z,85.32
2016-10-08T08:58:09.324Z,84.69
2016-10-08T09:03:05.989Z,83.74
2016-10-08T09:08:03.091Z,81.46
2016-10-08T09:12:59.918Z,80.02
2016-10-08T09:17:56.837Z,80.02
2016-10-08T09:22:53.665Z,79.49
2016-10-08T09:27:50.246Z,77.69
2016-10-08T09:32:46.426Z,78.16
2016-10-08T09:37:43.201Z,77.53
2016-10-08T09:42:40.151Z,75.81
2016-10-08T09:47:36.858Z,74.96
2016-10-08T09:52:33.472Z,74.29
2016-10-08T09:57:30.076Z,73.43
2016-10-08T10:02:26.855Z,72.86
2016-10-08T10:07:24.021Z,71.23
2016-10-08T10:12:20.751Z,70.51
2016-10-08T10:17:18.768Z,67.74
2016-10-08T10:22:15.710Z,67.40
2016-10-08T10:27:13.075Z,65.84
2016-10-08T10:32:09.636Z,66.25
2016-10-08T10:37:06.766Z,66.06
2016-10-08T10:42:03.647Z,62.84
2016-10-08T10:47:00.521Z,62.34
2016-10-08T10:51:57.753Z,63.03
2016-10-08T10:56:53.361Z,64.40
2016-10-08T11:01:50.945Z,60.55
2016-10-08T11:06:48.315Z,57.71
2016-10-08T11:11:46.627Z,55.29
2016-10-08T11:16:43.384Z,57.26
2016-10-08T11:21:40.577Z,58.76
2016-10-08T11:26:36.030Z,60.46
2016-10-08T11:31:32.270Z,61.79
2016-10-08T11:36:28.725Z,59.78
2016-10-08T11:41:29.520Z,58.38
2016-10-08T11:46:24.994Z,61.63
2016-10-08T11:51:22.566Z,61.63
2016-10-08T11:56:19.061Z,59.18
2016-10-08T12:01:15.243Z,56.63
2016-10-08T12:06:11.279Z,60.90
2016-10-08T12:11:07.335Z,62.91
2016-10-08T12:16:04.015Z,63.10
2016-10-08T12:21:00.731Z,66.41
2016-10-08T12:25:56.951Z,66.41
2016-10-08T12:30:53.182Z,67.07
2016-10-08T12:35:49.624Z,67.46
2016-10-08T12:40:45.996Z,66.12
2016-10-08T12:45:43.641Z,65.20
2016-10-08T12:50:40.160Z,65.01
2016-10-08T12:55:36.534Z,61.86
2016-10-08T13:00:33.243Z,58.51
2016-10-08T13:05:30.041Z,57.97
2016-10-08T13:10:26.620Z,55.94
2016-10-08T13:15:23.728Z,57.65
2016-10-08T13:20:20.338Z,54.50
2016-10-08T13:25:16.950Z,57.56
2016-10-08T13:30:13.427Z,58.51
2016-10-08T13:35:10.328Z,58.90
2016-10-08T13:40:07.043Z,58.36
2016-10-08T13:45:04.262Z,58.83
2016-10-08T13:50:01.763Z,58.64
2016-10-08T13:54:59.285Z,59.59
2016-10-08T13:59:56.361Z,58.58
2016-10-08T14:04:52.771Z,59.88
2016-10-08T14:09:50.801Z,61.89
2016-10-08T14:14:46.622Z,63.29
2016-10-08T14:19:42.975Z,64.72
2016-10-08T14:24:39.685Z,67.30
2016-10-08T14:29:36.374Z,67.55
2016-10-08T14:34:32.506Z,67.74
2016-10-08T14:39:29.940Z,67.80
2016-10-08T14:44:26.514Z,67.61
2016-10-08T14:49:22.862Z,66.88
2016-10-08T14:54:20.493Z,64.40
2016-10-08T14:59:17.834Z,64.59
2016-10-08T15:04:14.496Z,63.45
2016-10-08T15:09:11.945Z,63.35
2016-10-08T15:14:08.318Z,63.16
2016-10-08T15:19:05.045Z,63.48
2016-10-08T15:24:02.319Z,60.90
2016-10-08T15:28:59.086Z,59.95
2016-10-08T15:38:57.073Z,62.05
2016-10-08T15:43:53.460Z,63.35
2016-10-08T15:48:51.034Z,63.26
2016-10-08T15:53:47.379Z,62.88
2016-10-08T15:58:43.858Z,62.21
2016-10-08T16:03:40.445Z,62.30
2016-10-08T16:08:37.252Z,63.16
2016-10-08T16:13:33.830Z,63.26
2016-10-08T16:18:30.327Z,62.97
2016-10-08T16:23:26.751Z,63.45
2016-10-08T16:28:23.472Z,63.54
2016-10-08T16:33:19.922Z,65.55
2016-10-08T16:38:16.358Z,64.65
2016-10-08T16:43:12.705Z,65.52
2016-10-08T16:48:09.154Z,64.94
2016-10-08T16:53:05.634Z,66.47
2016-10-08T16:58:02.155Z,66.66
2016-10-08T17:02:58.564Z,67.42
2016-10-08T17:07:54.907Z,68.28
2016-10-08T17:12:51.745Z,69.39
2016-10-08T17:17:48.839Z,69.58
2016-10-08T17:22:45.604Z,69.96
2016-10-08T17:27:41.857Z,70.63
2016-10-08T17:32:38.965Z,71.30
2016-10-08T17:37:35.564Z,71.30
2016-10-08T17:42:32.683Z,71.68
2016-10-08T17:47:29.310Z,73.17
2016-10-08T17:52:26.645Z,74.12
2016-10-08T17:57:22.494Z,74.21
2016-10-08T18:02:19.256Z,74.79
2016-10-08T18:07:15.619Z,75.51
2016-10-08T18:12:12.050Z,75.79
2016-10-08T18:17:08.421Z,76.75
2016-10-08T18:22:04.904Z,76.75
2016-10-08T18:27:01.382Z,77.47
2016-10-08T18:31:57.764Z,77.95
2016-10-08T18:36:54.227Z,78.71
2016-10-08T18:41:50.749Z,78.99
2016-10-08T18:46:46.839Z,79.38
2016-10-08T18:51:43.695Z,79.28
2016-10-08T18:56:40.380Z,79.85
2016-10-08T19:01:36.961Z,79.75
2016-10-08T19:06:34.262Z,80.23
2016-10-08T19:11:30.240Z,80.99
2016-10-08T19:16:26.788Z,80.90
2016-10-08T19:21:23.411Z,81.66
2016-10-08T19:26:20.982Z,81.90
2016-10-08T19:31:17.110Z,82.48
2016-10-08T19:36:13.576Z,83.14
2016-10-08T19:41:10.084Z,84.00
2016-10-08T19:46:06.700Z,84.28
2016-10-08T19:51:02.979Z,85.24
2016-10-08T19:55:59.482Z,86.05
2016-10-08T20:00:56.012Z,85.76
2016-10-08T20:05:52.232Z,87.19
2016-10-08T20:10:48.558Z,87.95
2016-10-08T20:15:45.033Z,88.23
2016-10-08T20:20:41.375Z,88.52
2016-10-08T20:25:38.025Z,87.76
2016-10-08T20:30:34.534Z,87.57
2016-10-08T20:35:30.998Z,87.47
2016-10-08T20:40:27.342Z,87.28
2016-10-08T20:45:24.134Z,88.23
2016-10-08T20:50:20.542Z,88.04
2016-10-08T20:55:17.783Z,87.38
2016-10-08T21:00:14.060Z,88.13
2016-10-08T21:05:10.721Z,88.52
2016-10-08T21:10:07.054Z,88.90
2016-10-08T21:15:03.505Z,88.80
2016-10-08T21:20:00.222Z,89.28
2016-10-08T21:24:56.773Z,89.56
2016-10-08T21:29:53.190Z,89.56
2016-10-08T21:34:50.016Z,89.94
2016-10-08T21:39:46.485Z,90.70
2016-10-08T21:44:42.995Z,90.70
2016-10-08T21:49:39.577Z,90.89
2016-10-08T21:54:35.943Z,89.94
2016-10-08T21:59:32.666Z,90.61
2016-10-08T22:04:29.144Z,91.18
2016-10-08T22:09:25.639Z,90.52
2016-10-08T22:14:22.354Z,89.94
2016-10-08T22:19:18.756Z,90.42
2016-10-08T22:24:15.028Z,90.14
2016-10-08T22:29:11.687Z,90.33
2016-10-08T22:34:08.124Z,90.33
2016-10-08T22:39:04.611Z,90.61
2016-10-08T22:44:01.069Z,90.89
2016-10-08T22:48:57.431Z,90.99
2016-10-08T22:53:53.878Z,91.37
2016-10-08T22:58:50.282Z,92.03
2016-10-08T23:03:46.864Z,92.22
2016-10-08T23:08:43.225Z,92.32
2016-10-08T23:13:39.278Z,93.18
2016-10-08T23:18:35.773Z,93.18
2016-10-08T23:23:32.341Z,93.84
2016-10-08T23:28:28.762Z,93.27
2016-10-08T23:33:25.392Z,93.27
2016-10-08T23:38:21.920Z,93.65
2016-10-08T23:43:18.416Z,94.22
2016-10-08T23:48:15.838Z,93.94
2016-10-08T23:53:11.939Z,92.51
2016-10-08T23:58:08.562Z,93.27
